createdAt,value
2022-10-23T00:00:10.099Z,12.13
2022-10-23T00:02:37.227Z,11.10
2022-10-23T00:05:04.122Z,16.77
2022-10-23T00:10:02.707Z,11.75
2022-10-23T00:12:29.600Z,12.23
2022-10-23T00:14:56.355Z,11.70
2022-10-23T00:17:23.135Z,15.57
2022-10-23T00:19:49.887Z,25.83
2022-10-23T00:22:16.659Z,26.77
2022-10-23T00:24:43.452Z,11.20
2022-10-23T00:27:10.237Z,14.98
2022-10-23T00:29:37.006Z,18.63
2022-10-23T00:32:03.839Z,21.42
2022-10-23T00:34:30.562Z,21.80
2022-10-23T00:36:57.306Z,23.25
2022-10-23T00:39:24.110Z,17.52
2022-10-23T00:41:50.914Z,20.52
2022-10-23T00:44:17.656Z,20.88
2022-10-23T00:46:46.082Z,18.20
2022-10-23T00:51:50.431Z,15.85
2022-10-23T00:54:24.446Z,13.88
2022-10-23T00:56:53.746Z,11.13
2022-10-23T00:59:20.501Z,11.48
2022-10-23T01:01:48.434Z,11.35
2022-10-23T01:04:15.682Z,10.80
2022-10-23T01:06:45.105Z,8.45
2022-10-23T01:09:14.674Z,7.32
2022-10-23T01:11:48.427Z,11.10
2022-10-23T01:14:15.167Z,7.00
2022-10-23T01:16:41.925Z,8.30
2022-10-23T01:19:17.552Z,8.63
2022-10-23T01:21:53.499Z,9.52
2022-10-23T01:24:46.271Z,10.20
2022-10-23T01:27:18.766Z,4.88
2022-10-23T01:30:11.588Z,7.15
2022-10-23T01:32:38.355Z,7.90
2022-10-23T01:35:13.166Z,8.77
2022-10-23T01:37:43.283Z,6.32
2022-10-23T01:40:13.503Z,9.75
2022-10-23T01:42:44.864Z,5.28
2022-10-23T01:45:19.303Z,9.98
2022-10-23T01:47:46.112Z,8.85
2022-10-23T01:50:14.544Z,8.18
2022-10-23T01:52:41.441Z,7.18
2022-10-23T01:55:09.972Z,8.15
2022-10-23T01:57:37.587Z,9.13
2022-10-23T02:00:08.957Z,8.32
2022-10-23T02:05:06.437Z,6.95
2022-10-23T02:07:34.364Z,11.25
2022-10-23T02:10:02.299Z,7.22
2022-10-23T02:12:41.159Z,6.05
2022-10-23T02:15:07.999Z,9.27
2022-10-23T02:17:42.282Z,7.65
2022-10-23T02:20:09.228Z,10.13
2022-10-23T02:22:38.422Z,9.38
2022-10-23T02:25:11.467Z,8.40
2022-10-23T02:27:40.818Z,6.75
2022-10-23T02:30:12.081Z,7.38
2022-10-23T02:35:06.162Z,6.50
2022-10-23T02:37:33.478Z,8.52
2022-10-23T02:40:00.515Z,9.00
2022-10-23T02:42:47.507Z,8.90
2022-10-23T02:45:21.888Z,7.38
2022-10-23T02:48:12.350Z,8.23
2022-10-23T02:50:48.311Z,6.68
2022-10-23T02:53:21.355Z,7.10
2022-10-23T02:55:48.070Z,5.53
2022-10-23T02:58:24.853Z,5.32
2022-10-23T03:00:54.661Z,7.32
2022-10-23T03:03:29.993Z,5.25
2022-10-23T03:05:56.862Z,7.22
2022-10-23T03:08:25.139Z,5.90
2022-10-23T03:10:52.080Z,5.05
2022-10-23T03:13:18.842Z,9.70
2022-10-23T03:15:45.585Z,9.05
2022-10-23T03:18:12.491Z,8.68
2022-10-23T03:20:39.272Z,9.63
2022-10-23T03:23:06.079Z,9.57
2022-10-23T03:25:32.879Z,7.18
2022-10-23T03:28:00.302Z,7.68
2022-10-23T03:30:27.063Z,6.80
2022-10-23T03:32:53.884Z,7.72
2022-10-23T03:35:20.627Z,9.52
2022-10-23T03:37:47.372Z,9.68
2022-10-23T03:40:14.186Z,8.20
2022-10-23T03:42:40.933Z,8.65
2022-10-23T03:45:07.911Z,6.90
2022-10-23T03:47:35.616Z,8.50
2022-10-23T03:50:02.403Z,7.18
2022-10-23T03:52:29.145Z,6.05
2022-10-23T03:54:55.919Z,7.55
2022-10-23T03:57:22.686Z,8.73
2022-10-23T03:59:49.419Z,6.18
2022-10-23T04:02:16.423Z,6.32
2022-10-23T04:04:43.300Z,7.75
2022-10-23T04:07:10.175Z,9.60
2022-10-23T04:09:36.964Z,6.68
2022-10-23T04:12:03.826Z,8.93
2022-10-23T04:14:30.690Z,4.53
2022-10-23T04:16:57.679Z,8.18
2022-10-23T04:19:24.500Z,5.88
2022-10-23T04:21:51.259Z,6.78
2022-10-23T04:24:18.023Z,7.05
2022-10-23T04:26:44.766Z,8.15
2022-10-23T04:29:11.940Z,7.75
2022-10-23T04:31:39.206Z,8.65
2022-10-23T04:36:37.583Z,14.80
2022-10-23T04:39:04.379Z,8.25
2022-10-23T04:41:31.170Z,5.72
2022-10-23T04:43:57.905Z,6.30
2022-10-23T04:46:24.686Z,8.20
2022-10-23T04:48:51.459Z,5.63
2022-10-23T04:51:18.221Z,6.53
2022-10-23T04:53:45.046Z,5.25
2022-10-23T04:56:13.547Z,6.65
2022-10-23T04:58:40.283Z,6.25
2022-10-23T05:01:07.557Z,9.63
2022-10-23T05:03:34.419Z,7.45
2022-10-23T05:06:01.159Z,6.60
2022-10-23T05:08:27.926Z,5.75
2022-10-23T05:10:54.674Z,13.25
2022-10-23T05:13:21.505Z,4.85
2022-10-23T05:15:49.024Z,7.38
2022-10-23T05:18:24.680Z,5.32
2022-10-23T05:20:54.149Z,5.88
2022-10-23T05:23:22.518Z,7.25
2022-10-23T05:25:49.351Z,6.35
2022-10-23T05:28:16.148Z,7.32
2022-10-23T05:30:43.087Z,6.55
2022-10-23T05:33:11.050Z,6.45
2022-10-23T05:35:38.570Z,7.90
2022-10-23T05:38:06.995Z,4.72
2022-10-23T05:40:33.805Z,4.10
2022-10-23T05:43:00.656Z,5.90
2022-10-23T05:45:27.426Z,4.88
2022-10-23T05:47:56.563Z,4.68
2022-10-23T05:52:52.197Z,4.65
2022-10-23T05:55:18.975Z,5.13
2022-10-23T05:57:46.051Z,5.55
2022-10-23T06:00:13.266Z,6.70
2022-10-23T06:02:40.149Z,6.60
2022-10-23T06:05:07.205Z,4.68
2022-10-23T06:07:35.844Z,7.07
2022-10-23T06:10:03.806Z,5.53
2022-10-23T06:12:31.200Z,4.35
2022-10-23T06:14:57.946Z,6.00
2022-10-23T06:17:24.781Z,4.88
2022-10-23T06:19:51.581Z,5.22
2022-10-23T06:24:49.958Z,6.70
2022-10-23T06:27:16.884Z,6.80
2022-10-23T06:29:43.649Z,7.10
2022-10-23T06:32:10.459Z,8.45
2022-10-23T06:34:37.215Z,5.95
2022-10-23T06:37:04.121Z,11.23
2022-10-23T06:39:32.177Z,7.22
2022-10-23T06:41:59.253Z,8.68
2022-10-23T06:44:26.060Z,8.00
2022-10-23T06:46:52.841Z,8.60
2022-10-23T06:49:19.687Z,5.85
2022-10-23T06:51:46.457Z,6.47
2022-10-23T06:54:13.284Z,8.77
2022-10-23T06:56:40.035Z,5.57
2022-10-23T06:59:07.773Z,6.82
2022-10-23T07:01:35.475Z,10.30
2022-10-23T07:04:02.665Z,7.22
2022-10-23T07:06:29.418Z,5.65
2022-10-23T07:08:56.487Z,4.20
2022-10-23T07:11:23.411Z,6.00
2022-10-23T07:13:50.237Z,6.13
2022-10-23T07:16:18.366Z,6.43
2022-10-23T07:18:45.496Z,5.63
2022-10-23T07:21:12.258Z,5.45
2022-10-23T07:23:39.026Z,6.05
2022-10-23T07:26:07.959Z,7.05
2022-10-23T07:28:35.131Z,5.28
2022-10-23T07:31:01.947Z,10.25
2022-10-23T07:33:28.978Z,4.90
2022-10-23T07:35:55.751Z,6.88
2022-10-23T07:38:22.508Z,7.10
2022-10-23T07:40:49.437Z,7.30
2022-10-23T07:43:18.518Z,6.90
2022-10-23T07:45:49.473Z,4.40
2022-10-23T07:48:16.711Z,5.97
2022-10-23T07:50:43.565Z,7.18
2022-10-23T07:53:36.585Z,6.47
2022-10-23T07:56:04.911Z,4.10
2022-10-23T07:58:31.646Z,6.00
2022-10-23T08:01:02.079Z,6.35
2022-10-23T08:03:30.706Z,6.38
2022-10-23T08:05:57.768Z,7.35
2022-10-23T08:08:25.186Z,6.05
2022-10-23T08:10:52.779Z,7.07
2022-10-23T08:13:22.812Z,7.72
2022-10-23T08:15:50.612Z,6.13
2022-10-23T08:18:17.433Z,6.78
2022-10-23T08:20:45.180Z,6.75
2022-10-23T08:23:12.923Z,9.27
2022-10-23T08:25:40.472Z,6.80
2022-10-23T08:28:08.039Z,7.57
2022-10-23T08:30:35.700Z,7.03
2022-10-23T08:33:06.085Z,4.53
2022-10-23T08:35:37.566Z,7.70
2022-10-23T08:38:05.008Z,7.60
2022-10-23T08:40:31.968Z,7.30
2022-10-23T08:43:01.569Z,10.57
2022-10-23T08:45:35.288Z,8.18
2022-10-23T08:48:05.524Z,6.20
2022-10-23T08:50:38.844Z,8.18
2022-10-23T08:53:05.559Z,6.50
2022-10-23T08:55:58.460Z,6.60
2022-10-23T08:58:37.390Z,6.93
2022-10-23T09:01:20.367Z,7.13
2022-10-23T09:03:47.243Z,9.07
2022-10-23T09:06:24.551Z,8.55
2022-10-23T09:08:54.422Z,7.28
2022-10-23T09:11:27.474Z,8.43
2022-10-23T09:14:00.338Z,7.18
2022-10-23T09:16:32.861Z,15.40
2022-10-23T09:18:59.643Z,13.32
2022-10-23T09:21:30.299Z,6.50
2022-10-23T09:23:57.083Z,10.20
2022-10-23T09:26:23.890Z,8.77
2022-10-23T09:28:51.879Z,9.23
2022-10-23T09:31:19.203Z,8.18
2022-10-23T09:34:00.135Z,10.15
2022-10-23T09:36:29.354Z,6.63
2022-10-23T09:38:58.916Z,7.45
2022-10-23T09:41:29.022Z,8.50
2022-10-23T09:44:00.051Z,9.07
2022-10-23T09:46:36.499Z,8.65
2022-10-23T09:49:05.697Z,6.72
2022-10-23T09:51:32.890Z,7.53
2022-10-23T09:54:00.337Z,5.68
2022-10-23T09:56:27.111Z,6.85
2022-10-23T09:58:55.966Z,6.88
2022-10-23T10:01:24.155Z,7.28
2022-10-23T10:03:51.761Z,5.50
2022-10-23T10:06:28.801Z,6.85
2022-10-23T10:08:57.084Z,5.30
2022-10-23T10:11:27.739Z,8.18
2022-10-23T10:13:58.833Z,6.00
2022-10-23T10:16:31.898Z,4.95
2022-10-23T10:19:05.004Z,7.35
2022-10-23T10:21:41.438Z,3.70
2022-10-23T10:24:12.540Z,5.72
2022-10-23T10:26:55.901Z,3.90
2022-10-23T10:29:34.967Z,4.22
2022-10-23T10:32:17.798Z,4.65
2022-10-23T10:34:44.528Z,4.35
2022-10-23T10:37:29.454Z,5.63
2022-10-23T10:40:02.521Z,3.25
2022-10-23T10:43:01.683Z,3.38
2022-10-23T10:45:47.590Z,2.60
2022-10-23T10:48:33.041Z,3.97
2022-10-23T10:51:02.609Z,2.25
2022-10-23T10:53:49.612Z,2.88
2022-10-23T10:56:17.796Z,2.85
2022-10-23T10:58:44.553Z,3.25
2022-10-23T11:01:26.579Z,2.90
2022-10-23T11:04:08.875Z,4.55
2022-10-23T11:06:36.691Z,6.63
2022-10-23T11:09:24.407Z,4.03
2022-10-23T11:11:51.331Z,2.22
2022-10-23T11:14:19.579Z,2.70
2022-10-23T11:16:59.681Z,3.47
2022-10-23T11:19:32.710Z,3.13
2022-10-23T11:21:59.540Z,2.80
2022-10-23T11:24:32.321Z,2.22
2022-10-23T11:27:17.675Z,3.05
2022-10-23T11:30:02.969Z,2.97
2022-10-23T11:32:38.922Z,3.08
2022-10-23T11:35:08.539Z,2.97
2022-10-23T11:37:35.294Z,2.97
2022-10-23T11:40:13.766Z,3.78
2022-10-23T11:42:40.775Z,2.03
2022-10-23T11:45:26.151Z,4.20
2022-10-23T11:47:57.253Z,3.00
2022-10-23T11:50:27.155Z,3.50
2022-10-23T11:53:15.441Z,1.92
2022-10-23T11:55:56.763Z,1.50
2022-10-23T11:58:31.486Z,3.10
2022-10-23T12:01:01.179Z,1.90
2022-10-23T12:03:39.544Z,4.00
2022-10-23T12:06:06.583Z,1.95
2022-10-23T12:08:35.324Z,3.15
2022-10-23T12:11:02.113Z,1.90
2022-10-23T12:13:37.815Z,3.58
2022-10-23T12:16:07.467Z,1.95
2022-10-23T12:18:44.822Z,3.72
2022-10-23T12:21:22.083Z,3.28
2022-10-23T12:23:48.841Z,2.05
2022-10-23T12:26:18.396Z,2.72
2022-10-23T12:29:02.471Z,3.50
2022-10-23T12:31:29.195Z,2.22
2022-10-23T12:34:14.595Z,3.63
2022-10-23T12:37:00.082Z,3.30
2022-10-23T12:39:30.884Z,3.13
2022-10-23T12:41:58.681Z,3.95
2022-10-23T12:44:25.851Z,1.65
2022-10-23T12:47:00.661Z,2.08
2022-10-23T12:49:28.504Z,2.78
2022-10-23T12:51:57.298Z,4.40
2022-10-23T12:54:24.069Z,2.17
2022-10-23T12:56:51.246Z,2.83
2022-10-23T12:59:23.124Z,2.13
2022-10-23T13:01:52.802Z,2.97
2022-10-23T13:04:30.133Z,3.10
2022-10-23T13:06:58.577Z,2.47
2022-10-23T13:09:30.154Z,4.55
2022-10-23T13:11:57.513Z,2.30
2022-10-23T13:14:37.300Z,3.30
2022-10-23T13:17:07.435Z,2.10
2022-10-23T13:19:34.682Z,5.28
2022-10-23T13:22:03.066Z,1.92
2022-10-23T13:24:30.609Z,4.53
2022-10-23T13:26:57.948Z,2.15
2022-10-23T13:29:27.912Z,4.55
2022-10-23T13:31:54.760Z,4.43
2022-10-23T13:34:29.191Z,4.13
2022-10-23T13:37:00.694Z,4.68
2022-10-23T13:39:29.831Z,3.92
2022-10-23T13:41:57.280Z,3.63
2022-10-23T13:44:24.752Z,7.22
2022-10-23T13:46:52.400Z,5.55
2022-10-23T13:49:19.349Z,4.22
2022-10-23T13:51:48.675Z,6.60
2022-10-23T13:54:17.261Z,3.92
2022-10-23T13:56:44.517Z,6.10
2022-10-23T13:59:11.854Z,5.32
2022-10-23T14:01:39.016Z,4.40
2022-10-23T14:04:06.687Z,4.30
2022-10-23T14:06:33.826Z,4.13
2022-10-23T14:09:00.889Z,3.17
2022-10-23T14:11:27.702Z,5.55
2022-10-23T14:13:54.520Z,5.13
2022-10-23T14:16:21.771Z,6.00
2022-10-23T14:18:48.542Z,5.75
2022-10-23T14:21:16.457Z,7.90
2022-10-23T14:23:43.418Z,6.88
2022-10-23T14:26:11.673Z,3.20
2022-10-23T14:28:38.418Z,4.15
2022-10-23T14:31:05.765Z,5.43
2022-10-23T14:33:32.727Z,3.45
2022-10-23T14:35:59.528Z,6.22
2022-10-23T14:38:26.768Z,5.18
2022-10-23T14:40:53.606Z,7.45
2022-10-23T14:43:20.807Z,3.95
2022-10-23T14:45:47.600Z,5.00
2022-10-23T14:48:14.354Z,4.60
2022-10-23T14:50:45.005Z,4.28
2022-10-23T14:53:11.840Z,7.50
2022-10-23T14:55:38.840Z,4.57
2022-10-23T14:58:05.959Z,5.70
2022-10-23T15:00:32.816Z,5.95
2022-10-23T15:02:59.590Z,4.57
2022-10-23T15:05:26.400Z,4.22
2022-10-23T15:07:54.798Z,6.18
2022-10-23T15:10:21.549Z,6.50
2022-10-23T15:12:49.152Z,6.45
2022-10-23T15:15:16.017Z,6.38
2022-10-23T15:17:42.880Z,4.05
2022-10-23T15:20:09.892Z,7.00
2022-10-23T15:22:36.759Z,6.40
2022-10-23T15:25:03.661Z,5.00
2022-10-23T15:27:30.455Z,7.05
2022-10-23T15:29:57.212Z,6.93
2022-10-23T15:32:24.021Z,5.90
2022-10-23T15:34:52.131Z,8.13
2022-10-23T15:37:18.963Z,5.82
2022-10-23T15:39:45.934Z,6.47
2022-10-23T15:42:12.761Z,5.18
2022-10-23T15:44:40.065Z,6.65
2022-10-23T15:47:06.940Z,11.82
2022-10-23T15:49:33.860Z,5.93
2022-10-23T15:52:00.845Z,8.88
2022-10-23T15:54:30.578Z,10.27
2022-10-23T15:56:59.739Z,5.55
2022-10-23T15:59:27.023Z,5.05
2022-10-23T16:01:54.102Z,5.80
2022-10-23T16:04:21.143Z,5.93
2022-10-23T16:06:48.285Z,3.83
2022-10-23T16:09:15.417Z,2.65
2022-10-23T16:11:42.906Z,4.55
2022-10-23T16:14:13.559Z,2.47
2022-10-23T16:16:40.393Z,2.53
2022-10-23T16:19:07.159Z,4.05
2022-10-23T16:21:36.169Z,3.08
2022-10-23T16:24:04.543Z,4.45
2022-10-23T16:26:31.751Z,4.10
2022-10-23T16:28:59.883Z,3.90
2022-10-23T16:31:26.948Z,3.40
2022-10-23T16:33:54.279Z,3.88
2022-10-23T16:36:21.328Z,4.93
2022-10-23T16:38:48.125Z,5.28
2022-10-23T16:41:14.913Z,2.80
2022-10-23T16:43:41.691Z,5.85
2022-10-23T16:46:11.892Z,2.90
2022-10-23T16:48:38.694Z,2.80
2022-10-23T16:51:15.871Z,3.13
2022-10-23T16:53:43.108Z,3.63
2022-10-23T16:56:10.833Z,3.33
2022-10-23T16:58:40.922Z,3.90
2022-10-23T17:01:15.608Z,3.63
2022-10-23T17:03:43.986Z,4.43
2022-10-23T17:06:12.600Z,5.32
2022-10-23T17:08:40.036Z,4.65
2022-10-23T17:11:09.409Z,4.07
2022-10-23T17:13:36.806Z,5.35
2022-10-23T17:16:07.599Z,6.72
2022-10-23T17:18:34.701Z,4.25
2022-10-23T17:21:01.637Z,4.43
2022-10-23T17:23:28.832Z,8.13
2022-10-23T17:25:56.541Z,5.15
2022-10-23T17:28:23.682Z,4.88
2022-10-23T17:30:50.442Z,5.13
2022-10-23T17:33:17.334Z,5.20
2022-10-23T17:35:45.355Z,5.10
2022-10-23T17:38:17.992Z,5.85
2022-10-23T17:40:47.751Z,6.40
2022-10-23T17:43:15.486Z,6.28
2022-10-23T17:45:45.033Z,9.20
2022-10-23T17:48:12.902Z,9.32
2022-10-23T17:50:40.510Z,6.30
2022-10-23T17:53:07.679Z,5.95
2022-10-23T17:55:40.577Z,7.10
2022-10-23T17:58:07.657Z,7.53
2022-10-23T18:00:37.942Z,8.15
2022-10-23T18:03:05.009Z,11.38
2022-10-23T18:05:33.127Z,7.28
2022-10-23T18:08:00.258Z,8.85
2022-10-23T18:10:27.451Z,6.03
2022-10-23T18:12:54.602Z,10.32
2022-10-23T18:15:21.416Z,12.57
2022-10-23T18:17:48.150Z,14.25
2022-10-23T18:20:15.827Z,12.68
2022-10-23T18:22:42.892Z,7.85
2022-10-23T18:25:10.209Z,6.63
2022-10-23T18:27:37.156Z,8.02
2022-10-23T18:30:04.084Z,9.02
2022-10-23T18:32:30.901Z,5.70
2022-10-23T18:34:57.715Z,8.55
2022-10-23T18:37:26.820Z,9.00
2022-10-23T18:39:55.624Z,5.32
2022-10-23T18:42:22.380Z,11.18
2022-10-23T18:44:50.069Z,11.45
2022-10-23T18:49:48.623Z,10.68
2022-10-23T18:52:15.382Z,9.38
2022-10-23T18:54:42.147Z,12.48
2022-10-23T18:57:08.919Z,9.43
2022-10-23T18:59:35.755Z,8.70
2022-10-23T19:02:02.690Z,10.85
2022-10-23T19:04:32.789Z,7.78
2022-10-23T19:07:02.442Z,6.55
2022-10-23T19:09:29.245Z,8.55
2022-10-23T19:11:56.826Z,6.15
2022-10-23T19:14:23.589Z,5.20
2022-10-23T19:17:01.050Z,7.85
2022-10-23T19:19:33.784Z,10.23
2022-10-23T19:22:02.223Z,12.85
2022-10-23T19:24:33.650Z,9.60
2022-10-23T19:27:00.739Z,12.27
2022-10-23T19:29:28.657Z,9.45
2022-10-23T19:31:55.631Z,7.80
2022-10-23T19:34:24.763Z,11.02
2022-10-23T19:36:52.821Z,15.60
2022-10-23T19:39:19.818Z,10.55
2022-10-23T19:41:46.808Z,12.68
2022-10-23T19:44:14.707Z,11.32
2022-10-23T19:46:41.464Z,8.18
2022-10-23T19:49:09.070Z,12.02
2022-10-23T19:51:35.866Z,9.77
2022-10-23T19:54:02.776Z,7.05
2022-10-23T19:56:29.569Z,11.98
2022-10-23T19:58:56.394Z,13.55
2022-10-23T20:01:24.499Z,11.27
2022-10-23T20:03:51.718Z,16.63
2022-10-23T20:06:23.189Z,15.63
2022-10-23T20:08:50.521Z,13.15
2022-10-23T20:11:20.521Z,9.57
2022-10-23T20:13:48.498Z,12.57
2022-10-23T20:16:22.521Z,14.98
2022-10-23T20:18:49.725Z,9.15
2022-10-23T20:21:16.497Z,12.55
2022-10-23T20:23:43.363Z,10.15
2022-10-23T20:26:11.652Z,9.63
2022-10-23T20:28:38.590Z,12.18
2022-10-23T20:31:09.398Z,8.55
2022-10-23T20:33:37.457Z,8.80
2022-10-23T20:36:05.685Z,6.75
2022-10-23T20:38:32.833Z,7.50
2022-10-23T20:41:03.973Z,7.60
2022-10-23T20:43:32.319Z,11.68
2022-10-23T20:46:06.106Z,7.95
2022-10-23T20:48:36.563Z,11.60
2022-10-23T20:51:04.126Z,8.65
2022-10-23T20:53:31.278Z,5.60
2022-10-23T20:55:58.179Z,4.05
2022-10-23T20:58:24.939Z,5.28
2022-10-23T21:03:19.400Z,3.58
2022-10-23T21:05:47.082Z,4.55
2022-10-23T21:08:13.920Z,2.13
2022-10-23T21:10:49.419Z,3.20
2022-10-23T21:13:16.190Z,4.63
2022-10-23T21:15:42.951Z,2.25
2022-10-23T21:18:27.589Z,3.95
2022-10-23T21:21:02.359Z,2.10
2022-10-23T21:23:29.096Z,3.38
2022-10-23T21:25:55.823Z,4.20
2022-10-23T21:28:22.606Z,3.47
2022-10-23T21:30:49.365Z,0.63
2022-10-23T21:33:16.136Z,0.90
2022-10-23T21:35:52.308Z,3.05
2022-10-23T21:38:25.562Z,2.75
2022-10-23T21:40:52.431Z,1.13
2022-10-23T21:43:19.198Z,1.52
2022-10-23T21:45:45.979Z,3.60
2022-10-23T21:48:12.758Z,2.85
2022-10-23T21:50:39.565Z,3.33
2022-10-23T21:53:06.429Z,3.13
2022-10-23T21:55:33.247Z,3.65
2022-10-23T21:58:00.022Z,1.35
2022-10-23T22:00:26.752Z,4.60
2022-10-23T22:02:53.584Z,4.72
2022-10-23T22:05:20.358Z,4.72
2022-10-23T22:07:48.043Z,3.13
2022-10-23T22:10:14.919Z,4.57
2022-10-23T22:12:41.708Z,3.80
2022-10-23T22:15:08.756Z,3.10
2022-10-23T22:17:35.541Z,3.53
2022-10-23T22:20:02.307Z,3.10
2022-10-23T22:22:29.094Z,5.57
2022-10-23T22:24:55.922Z,8.07
2022-10-23T22:27:22.681Z,5.05
2022-10-23T22:29:49.414Z,3.72
2022-10-23T22:32:16.197Z,5.05
2022-10-23T22:34:52.978Z,8.02
2022-10-23T22:37:20.380Z,6.15
2022-10-23T22:39:50.160Z,5.78
2022-10-23T22:42:16.893Z,4.47
2022-10-23T22:44:43.683Z,5.13
2022-10-23T22:47:10.534Z,6.65
2022-10-23T22:49:38.413Z,6.85
2022-10-23T22:52:05.211Z,7.68
2022-10-23T22:54:32.014Z,14.45
2022-10-23T22:57:01.863Z,11.70
2022-10-23T22:59:28.715Z,12.13
2022-10-23T23:01:55.528Z,7.38
2022-10-23T23:04:38.893Z,11.02
2022-10-23T23:07:10.460Z,16.17
2022-10-23T23:09:38.363Z,17.65
2022-10-23T23:12:05.892Z,9.02
2022-10-23T23:14:32.697Z,9.65
2022-10-23T23:16:59.499Z,16.90
2022-10-23T23:19:26.703Z,9.93
2022-10-23T23:21:57.358Z,12.52
2022-10-23T23:24:24.320Z,15.40
2022-10-23T23:26:51.395Z,15.05
2022-10-23T23:29:18.309Z,11.10
2022-10-23T23:31:45.424Z,11.23
2022-10-23T23:34:12.198Z,12.25
2022-10-23T23:36:39.002Z,13.18
2022-10-23T23:39:05.771Z,9.32
2022-10-23T23:41:32.535Z,8.32
2022-10-23T23:43:59.313Z,10.68
2022-10-23T23:46:26.148Z,10.60
2022-10-23T23:48:52.955Z,16.15
2022-10-23T23:51:23.518Z,15.85
2022-10-23T23:53:50.355Z,13.80
2022-10-23T23:56:17.385Z,14.45
2022-10-23T23:58:44.516Z,16.55
